Omaha, NE (68101)

5:36 PM CDT on May 25, 2015 (GMT -0500)
Midtown Crossing area | | Change Station
CLOSE
Current Station
Personal Weather Station
Location: Omaha, NE
Elevation: 1161 ft
Nearby Weather Stations
Active Advisory: Severe Thunderstorm Watch

Elev 1161 ft 41.26 °N, 95.96 °W | Updated 9 seconds ago

Partly Cloudy
Partly Cloudy
78.6 °F
Feels Like 80 °F
N
10.7
Wind Variable Wind from SW
Gusts 15.0 mph

Today
High -- | Low -- °F
--% Chance of Precip.
Yesterday
High -- | Low -- °F
Precip. -- in
5:57 AM 8:44 PM
First Quarter, 52% visible
Pressure 29.73 in
Visibility 10.0 miles
Clouds Scattered Clouds 4600 ft
Heat Index 80 °F
Dew Point 62 °F
Humidity 56%
Rainfall 0.00 in
Snow Depth Not available.
UV 3.0 out of 12
Pollen 2.00 out of 12
Air Quality Not available.
Flu Activity No Activity
METAR KOMA 252152Z 19013KT 10SM SCT046 27/16 A2975 RMK AO2 SLP068 T02720161

More Conditions Fewer Conditions

Pressure 29.73 in
Visibility 10.0 miles
Clouds Scattered Clouds 4600 ft
Heat Index 80 °F
Dew Point 62 °F
Humidity 56%
Rainfall 0.00 in
Snow Depth Not available.
UV 3.0 out of 12
Pollen 2.00 out of 12
Air Quality Not available.
Flu Activity No Activity
METAR KOMA 252152Z 19013KT 10SM SCT046 27/16 A2975 RMK AO2 SLP068 T02720161

More Conditions Fewer Conditions

10-Day Weather Forecast

Almanac

Astronomy

May. 25, 2015 Rise Set
Actual Time
Civil Twilight
Nautical Twilight
Astronomical Twilight
Moon
Length of Visible Light
Length of Day
Tomorrow will be .
, % of the Moon is Illuminated

Today's Extremes

State Highs State Lows

Community

WunderPhotos

Upload Photos

1,824,150 photos uploaded!

WunderBlogs® & News

Nearby

Air Quality

  Air Quality AQ Index Pollutant
Not available.

Snow Depth

Station Depth Elevation

Earthquake Activity

City Distance Mag. Time & Date
Minimum magnitude displayed is 2.5.

Coastal Water Temperatures

Place Temperature

Stations

Nearby Weather Stations

Station Location Temp. Windchill Dew Point Humidity Wind Precip. Elev Updated Type
                   
Severe Thunderstorm Watch
Statement as of 5:34 PM CDT on May 25, 2015


The National Weather Service has issued Severe Thunderstorm Watch
214 in effect until 1 am CDT Tuesday for the following areas

In Iowa this watch includes 7 counties

In southwest Iowa

Fremont Harrison Mills
Montgomery Page Pottawattamie
Shelby

In Nebraska this watch includes 11 counties

In east central Nebraska

Douglas Sarpy Washington

In southeast Nebraska

Cass gage Jefferson
Johnson Nemaha Otoe
Pawnee Richardson

This includes the cities of... Auburn... Beatrice... Bellevue...
Blair... Clarinda... Council Bluffs... Dunlap... Fairbury...
Falls City... Farragut... Glenwood... Hamburg... Harlan... La Vista...
Logan... Missouri Valley... Nebraska City... Omaha... Papillion...
Pawnee City... Plattsmouth... Red Oak... Shenandoah... Sidney...
Sterling... Table Rock... Tabor... Tecumseh and Woodbine.


Fobert